createdAt,value
2022-09-06T00:09:23.865Z,11.1
2022-09-06T00:23:54.129Z,11.4
2022-09-06T00:38:19.264Z,11.2
2022-09-06T00:52:47.737Z,11.3
2022-09-06T01:07:14.402Z,11.7
2022-09-06T01:21:42.394Z,11.6
2022-09-06T01:36:09.335Z,11.2
2022-09-06T01:50:38.712Z,11
2022-09-06T02:05:12.392Z,11.2
2022-09-06T02:19:39.812Z,11.4
2022-09-06T02:34:02.372Z,11.4
2022-09-06T02:48:31.494Z,11.6
2022-09-06T03:03:01.356Z,11.6
2022-09-06T03:17:28.970Z,11.7
2022-09-06T03:32:01.474Z,12
2022-09-06T03:46:30.474Z,11.9
2022-09-06T04:00:55.418Z,11.9
2022-09-06T04:15:24.295Z,12
2022-09-06T04:29:52.641Z,11.8
2022-09-06T04:44:20.105Z,12.1
2022-09-06T04:58:49.542Z,12.5
2022-09-06T05:13:23.399Z,12.3
2022-09-06T05:27:52.928Z,12.5
2022-09-06T05:42:19.874Z,12.5
2022-09-06T05:56:45.611Z,12.8
2022-09-06T06:11:17.415Z,13
2022-09-06T06:25:43.775Z,13
2022-09-06T06:40:13.540Z,13.2
2022-09-06T06:54:42.349Z,13.5
2022-09-06T07:09:12.048Z,13.7
2022-09-06T07:24:13.409Z,13.9
2022-09-06T07:38:41.981Z,14.7
2022-09-06T07:53:31.013Z,13.8
2022-09-06T08:08:59.055Z,13.9
2022-09-06T08:23:14.493Z,13.8
2022-09-06T08:37:37.124Z,13.9
2022-09-06T08:52:11.643Z,13.3
2022-09-06T09:06:44.126Z,13.5
2022-09-06T09:21:08.796Z,13.1
2022-09-06T09:35:36.055Z,13.1
2022-09-06T09:49:55.507Z,13.3
2022-09-06T10:04:52.519Z,13.2
2022-09-06T10:19:03.824Z,13.1
2022-09-06T10:33:31.361Z,13.3
2022-09-06T10:48:00.649Z,13.3
2022-09-06T11:02:27.843Z,13.1
2022-09-06T11:16:56.611Z,13.3
2022-09-06T11:32:25.448Z,13.3
2022-09-06T11:46:28.104Z,13.5
2022-09-06T12:00:56.343Z,13.2
2022-09-06T12:15:24.053Z,12.8
2022-09-06T12:29:51.289Z,13.5
2022-09-06T12:44:19.247Z,13.3
2022-09-06T12:58:48.467Z,12.6
2022-09-06T13:13:16.067Z,12.8
2022-09-06T13:27:44.162Z,12.6
2022-09-06T13:42:18.168Z,12.7
2022-09-06T13:56:48.842Z,12.1
2022-09-06T14:11:12.015Z,11.5
2022-09-06T14:25:40.508Z,11.1
2022-09-06T14:40:08.446Z,11
2022-09-06T14:54:40.693Z,11.3
2022-09-06T15:09:12.176Z,11.1
2022-09-06T15:23:38.489Z,11.6
2022-09-06T15:38:04.648Z,11.8
2022-09-06T15:52:33.590Z,11.9
2022-09-06T16:07:01.715Z,11.8
2022-09-06T16:21:29.484Z,12.1
2022-09-06T16:35:57.810Z,12.1
2022-09-06T16:50:24.195Z,12
2022-09-06T17:04:51.410Z,11.8
2022-09-06T17:19:25.051Z,12.2
2022-09-06T17:33:47.681Z,11.7
2022-09-06T17:48:18.555Z,11.7
2022-09-06T18:02:42.370Z,11.8
2022-09-06T18:17:08.529Z,11.7
2022-09-06T18:31:35.676Z,12.2
2022-09-06T18:46:04.351Z,12.9
2022-09-06T19:00:37.947Z,13.9
2022-09-06T19:15:07.677Z,13.6
2022-09-06T19:29:31.054Z,13.5
2022-09-06T19:43:56.674Z,13.2
2022-09-06T19:58:25.100Z,13.2
2022-09-06T20:12:55.885Z,12.7
2022-09-06T20:27:25.925Z,12.6
2022-09-06T20:41:48.157Z,12.6
2022-09-06T20:56:16.683Z,12.7
2022-09-06T21:10:44.733Z,12.5
2022-09-06T21:25:11.603Z,14.2
2022-09-06T21:39:38.028Z,14.7
2022-09-06T21:54:05.478Z,15
2022-09-06T22:08:33.636Z,15.3
2022-09-06T22:23:01.653Z,15.4
2022-09-06T22:37:29.933Z,15.9
2022-09-06T22:51:57.966Z,15.6
2022-09-06T23:06:26.637Z,15.6
2022-09-06T23:20:53.971Z,15.4
2022-09-06T23:35:22.132Z,15.5
2022-09-06T23:49:55.917Z,15.8
